createdAt,value
2017-08-02T00:01:02.976Z,63.35
2017-08-02T00:02:13.327Z,63.25
2017-08-02T00:03:23.696Z,63.35
2017-08-02T00:04:34.076Z,63.15
2017-08-02T00:05:44.431Z,63.25
2017-08-02T00:06:54.820Z,63.54
2017-08-02T00:08:05.171Z,63.35
2017-08-02T00:09:15.519Z,63.35
2017-08-02T00:10:25.561Z,63.35
2017-08-02T00:11:35.916Z,63.15
2017-08-02T00:12:46.277Z,63.54
2017-08-02T00:13:56.631Z,63.54
2017-08-02T00:15:06.986Z,63.25
2017-08-02T00:16:17.332Z,63.54
2017-08-02T00:17:27.076Z,63.45
2017-08-02T00:18:37.104Z,63.35
2017-08-02T00:19:47.460Z,63.45
2017-08-02T00:20:57.807Z,63.35
2017-08-02T00:22:08.182Z,63.35
2017-08-02T00:23:18.545Z,63.45
2017-08-02T00:24:28.926Z,63.35
2017-08-02T00:25:39.280Z,62.96
2017-08-02T00:26:49.639Z,62.96
2017-08-02T00:27:59.674Z,62.96
2017-08-02T00:29:10.062Z,62.96
2017-08-02T00:30:20.483Z,62.76
2017-08-02T00:31:30.848Z,63.45
2017-08-02T00:32:40.884Z,63.15
2017-08-02T00:33:51.240Z,62.86
2017-08-02T00:35:01.609Z,63.25
2017-08-02T00:36:11.705Z,63.25
2017-08-02T00:37:21.436Z,63.25
2017-08-02T00:38:31.784Z,63.25
2017-08-02T00:39:41.510Z,63.25
2017-08-02T00:40:51.552Z,63.15
2017-08-02T00:42:01.913Z,62.96
2017-08-02T00:43:12.270Z,62.96
2017-08-02T00:44:22.298Z,62.96
2017-08-02T00:45:32.655Z,63.15
2017-08-02T00:46:42.683Z,63.51
2017-08-02T00:47:53.087Z,63.35
2017-08-02T00:49:03.443Z,63.32
2017-08-02T00:50:13.803Z,63.32
2017-08-02T00:51:24.162Z,63.32
2017-08-02T00:52:34.542Z,63.32
2017-08-02T00:53:44.625Z,63.32
2017-08-02T00:54:54.978Z,63.32
2017-08-02T00:56:05.005Z,63.32
2017-08-02T00:57:15.035Z,63.51
2017-08-02T00:58:25.416Z,63.42
2017-08-02T00:59:35.486Z,63.39
2017-08-02T01:00:45.521Z,63.48
2017-08-02T01:01:55.883Z,63.29
2017-08-02T01:03:05.928Z,63.29
2017-08-02T01:04:15.978Z,63.39
2017-08-02T01:05:26.339Z,63.29
2017-08-02T01:06:36.683Z,63.48
2017-08-02T01:07:47.021Z,63.29
2017-08-02T01:08:57.370Z,63.29
2017-08-02T01:10:07.716Z,63.29
2017-08-02T01:11:18.073Z,63.29
2017-08-02T01:12:28.463Z,63.45
2017-08-02T01:13:38.817Z,63.26
2017-08-02T01:14:49.175Z,63.45
2017-08-02T01:15:59.207Z,63.26
2017-08-02T01:17:09.292Z,63.35
2017-08-02T01:18:19.634Z,63.45
2017-08-02T01:19:29.983Z,63.06
2017-08-02T01:20:40.022Z,63.35
2017-08-02T01:21:50.061Z,63.16
2017-08-02T01:23:00.091Z,62.87
2017-08-02T01:24:09.831Z,62.87
2017-08-02T01:25:19.883Z,62.87
2017-08-02T01:26:29.934Z,63.26
2017-08-02T01:27:40.287Z,63.35
2017-08-02T01:28:50.703Z,63.26
2017-08-02T01:30:01.072Z,63.45
2017-08-02T01:31:11.436Z,63.45
2017-08-02T01:32:21.789Z,63.45
2017-08-02T01:33:31.195Z,63.23
2017-08-02T01:34:41.582Z,63.42
2017-08-02T01:35:51.934Z,63.42
2017-08-02T01:37:01.961Z,63.42
2017-08-02T01:38:12.318Z,63.03
2017-08-02T01:39:22.659Z,62.84
2017-08-02T01:40:33.047Z,63.03
2017-08-02T01:41:43.402Z,62.64
2017-08-02T01:42:53.772Z,62.96
2017-08-02T01:44:03.186Z,62.87
2017-08-02T01:45:13.545Z,62.77
2017-08-02T01:46:23.967Z,62.96
2017-08-02T01:47:34.315Z,62.96
2017-08-02T01:48:44.352Z,62.96
2017-08-02T01:49:54.710Z,63.06
2017-08-02T01:51:05.096Z,62.7
2017-08-02T01:52:15.487Z,62.87
2017-08-02T01:53:25.837Z,62.9
2017-08-02T01:54:36.193Z,62.8
2017-08-02T01:55:46.557Z,62.7
2017-08-02T01:56:56.908Z,62.83
2017-08-02T01:58:06.677Z,63.02
2017-08-02T01:59:17.017Z,63.09
2017-08-02T02:00:27.399Z,62.93
2017-08-02T02:01:37.737Z,62.99
2017-08-02T02:02:48.100Z,63.39
2017-08-02T02:03:58.476Z,63.39
2017-08-02T02:05:08.835Z,63.51
2017-08-02T02:06:18.886Z,63.51
2017-08-02T02:07:29.235Z,63.51
2017-08-02T02:08:39.581Z,63.32
2017-08-02T02:09:49.931Z,63.42
2017-08-02T02:10:59.655Z,63.02
2017-08-02T02:12:10.017Z,63.22
2017-08-02T02:13:20.367Z,63.02
2017-08-02T02:14:30.743Z,63.32
2017-08-02T02:15:41.118Z,63.32
2017-08-02T02:16:51.157Z,63.42
2017-08-02T02:18:00.879Z,63.32
2017-08-02T02:19:11.255Z,63.22
2017-08-02T02:20:21.605Z,63.02
2017-08-02T02:21:31.980Z,63.12
2017-08-02T02:22:42.322Z,63.35
2017-08-02T02:23:52.667Z,63.35
2017-08-02T02:25:03.002Z,62.96
2017-08-02T02:26:13.366Z,63.35
2017-08-02T02:27:23.775Z,62.96
2017-08-02T02:28:34.140Z,63.25
2017-08-02T02:29:44.186Z,63.35
2017-08-02T02:30:54.234Z,63.25
2017-08-02T02:32:04.599Z,63.25
2017-08-02T02:33:14.641Z,63.35
2017-08-02T02:34:25.004Z,63.35
2017-08-02T02:35:35.059Z,63.15
2017-08-02T02:36:45.125Z,63.06
2017-08-02T02:37:55.496Z,63.35
2017-08-02T02:39:05.580Z,63.35
2017-08-02T02:40:15.618Z,62.86
2017-08-02T02:41:25.974Z,62.96
2017-08-02T02:42:36.333Z,63.25
2017-08-02T02:43:46.378Z,63.45
2017-08-02T02:44:56.475Z,63.06
2017-08-02T02:46:06.827Z,63.02
2017-08-02T02:47:17.184Z,62.93
2017-08-02T02:48:27.543Z,63.06
2017-08-02T02:49:37.898Z,63.12
2017-08-02T02:50:48.249Z,63.02
2017-08-02T02:51:58.608Z,63.02
2017-08-02T02:53:08.962Z,63.12
2017-08-02T02:54:19.014Z,63.22
2017-08-02T02:55:29.371Z,63.22
2017-08-02T02:56:39.468Z,63.42
2017-08-02T02:57:49.519Z,63.12
2017-08-02T02:58:59.890Z,63.12
2017-08-02T03:00:10.255Z,63.32
2017-08-02T03:01:20.605Z,63.32
2017-08-02T03:33:29.842Z,60.9
2017-08-02T03:34:40.176Z,60.71
2017-08-02T03:35:50.530Z,61.58
2017-08-02T03:37:00.254Z,62.26
2017-08-02T03:38:10.602Z,63.04
2017-08-02T03:39:21.013Z,63.13
2017-08-02T03:40:31.369Z,62.84
2017-08-02T03:41:41.738Z,62.77
2017-08-02T03:42:52.078Z,62.87
2017-08-02T03:44:02.114Z,63.17
2017-08-02T03:45:12.202Z,63.36
2017-08-02T03:46:22.231Z,63.59
2017-08-02T03:47:32.582Z,63
2017-08-02T03:48:42.940Z,63
2017-08-02T03:49:52.978Z,63.23
2017-08-02T03:51:03.337Z,63.23
2017-08-02T03:52:13.378Z,63.26
2017-08-02T03:53:23.724Z,62.87
2017-08-02T03:54:34.086Z,63.06
2017-08-02T03:55:44.441Z,63.16
2017-08-02T03:56:54.808Z,63.19
2017-08-02T03:58:05.156Z,62.9
2017-08-02T03:59:15.518Z,63.09
2017-08-02T04:00:25.559Z,62.9
2017-08-02T04:01:35.896Z,62.54
2017-08-02T04:02:46.293Z,63.02
2017-08-02T04:03:56.658Z,63.02
2017-08-02T04:05:07.042Z,62.76
2017-08-02T04:06:17.386Z,62.47
2017-08-02T04:07:27.729Z,62.47
2017-08-02T04:08:37.819Z,62.47
2017-08-02T04:09:48.191Z,62.38
2017-08-02T04:10:58.544Z,62.47
2017-08-02T04:12:08.583Z,62.31
2017-08-02T04:13:18.951Z,62.6
2017-08-02T04:14:29.340Z,62.6
2017-08-02T04:15:39.374Z,62.5
2017-08-02T04:16:49.729Z,62.41
2017-08-02T04:17:59.780Z,62.7
2017-08-02T04:19:09.544Z,62.7
2017-08-02T04:20:19.940Z,62.5
2017-08-02T04:21:30.000Z,62.73
2017-08-02T04:22:40.369Z,62.63
2017-08-02T04:23:50.420Z,62.73
2017-08-02T04:25:00.454Z,62.53
2017-08-02T04:26:10.539Z,62.34
2017-08-02T04:27:20.914Z,62.63
2017-08-02T04:28:31.274Z,62.34
2017-08-02T04:29:41.314Z,62.34
2017-08-02T04:30:51.660Z,62.53
2017-08-02T04:32:02.077Z,62.63
2017-08-02T04:33:12.718Z,62.63
2017-08-02T04:34:22.464Z,62.73
2017-08-02T04:35:32.817Z,62.63
2017-08-02T04:36:42.538Z,62.34
2017-08-02T04:37:53.653Z,62.53
2017-08-02T04:39:03.686Z,62.53
2017-08-02T04:40:14.041Z,62.53
2017-08-02T04:41:24.400Z,62.73
2017-08-02T04:42:33.844Z,62.73
2017-08-02T04:43:44.218Z,62.82
2017-08-02T04:44:54.573Z,62.82
2017-08-02T04:46:04.628Z,62.82
2017-08-02T04:47:14.364Z,62.53
2017-08-02T04:48:24.726Z,62.63
2017-08-02T04:49:35.082Z,62.53
2017-08-02T04:50:45.137Z,62.34
2017-08-02T04:51:55.503Z,62.82
2017-08-02T04:53:05.239Z,62.63
2017-08-02T04:54:15.598Z,62.73
2017-08-02T04:55:25.307Z,62.92
2017-08-02T04:56:35.348Z,62.15
2017-08-02T04:57:45.736Z,62.34
2017-08-02T04:58:55.781Z,62.24
2017-08-02T05:00:06.141Z,62.37
2017-08-02T05:01:16.491Z,62.47
2017-08-02T05:02:26.828Z,61.98
2017-08-02T05:03:36.868Z,61.79
2017-08-02T05:04:47.211Z,61.79
2017-08-02T05:05:57.596Z,61.59
2017-08-02T05:07:07.685Z,61.91
2017-08-02T05:08:18.039Z,61.91
2017-08-02T05:09:28.406Z,61.06
2017-08-02T05:10:38.763Z,60.8
2017-08-02T05:11:48.810Z,60.53
2017-08-02T05:12:58.894Z,59.78
2017-08-02T05:14:09.230Z,59.25
2017-08-02T05:15:19.591Z,58.89
2017-08-02T05:16:29.934Z,59.11
2017-08-02T05:17:39.974Z,59.31
2017-08-02T05:18:50.322Z,58.75
2017-08-02T05:20:00.678Z,58.19
2017-08-02T05:21:11.025Z,59.3
2017-08-02T05:22:21.393Z,60.55
2017-08-02T05:23:31.435Z,61.47
2017-08-02T05:24:41.827Z,61.8
2017-08-02T05:25:51.870Z,62.09
2017-08-02T05:27:02.216Z,62.13
2017-08-02T05:28:12.582Z,62.32
2017-08-02T05:29:22.647Z,62.32
2017-08-02T05:30:32.744Z,63.28
2017-08-02T05:31:43.117Z,63.28
2017-08-02T05:32:53.458Z,62.1
2017-08-02T05:34:03.191Z,62.16
2017-08-02T05:35:13.252Z,62.16
2017-08-02T05:36:23.292Z,62.46
2017-08-02T05:37:33.653Z,61.87
2017-08-02T05:38:44.008Z,61.77
2017-08-02T05:39:54.055Z,61.97
2017-08-02T05:41:04.119Z,61.58
2017-08-02T05:42:14.513Z,61.48
2017-08-02T05:43:24.857Z,60.99
2017-08-02T05:44:35.206Z,60.99
2017-08-02T05:45:45.558Z,61.41
2017-08-02T05:46:54.960Z,61.41
2017-08-02T05:48:05.315Z,61.12
2017-08-02T05:49:15.375Z,61.22
2017-08-02T05:50:25.413Z,61.44
2017-08-02T05:51:35.771Z,60.96
2017-08-02T05:52:46.138Z,60.76
2017-08-02T05:53:56.541Z,61.05
2017-08-02T05:55:06.912Z,60.99
2017-08-02T05:56:17.277Z,61.08
2017-08-02T05:57:27.007Z,61.08
2017-08-02T05:58:37.066Z,60.89
2017-08-02T05:59:47.154Z,60.5
2017-08-02T06:00:57.192Z,60.6
2017-08-02T06:02:07.548Z,60.72
2017-08-02T06:03:17.284Z,60.13
2017-08-02T06:04:27.656Z,60.23
2017-08-02T06:05:38.074Z,60.33
2017-08-02T06:06:48.137Z,60.46
2017-08-02T06:07:58.496Z,60.23
2017-08-02T06:09:08.863Z,60.46
2017-08-02T06:10:19.215Z,60.42
2017-08-02T06:11:29.315Z,60.92
2017-08-02T06:12:39.679Z,60.92
2017-08-02T06:13:50.044Z,61.02
2017-08-02T06:15:00.404Z,60.92
2017-08-02T06:16:10.770Z,61.6
2017-08-02T06:17:21.161Z,61.6
2017-08-02T06:18:31.188Z,61.21
2017-08-02T06:19:41.559Z,61.47
2017-08-02T06:20:51.607Z,60.69
2017-08-02T06:22:01.652Z,61.41
2017-08-02T06:23:12.015Z,60.13
2017-08-02T06:24:22.361Z,60.26
2017-08-02T06:25:32.147Z,60.49
2017-08-02T06:26:42.508Z,60.29
2017-08-02T06:27:52.854Z,60.39
2017-08-02T06:29:03.216Z,60.78
2017-08-02T06:30:13.252Z,60.29
2017-08-02T06:31:23.663Z,59.7
2017-08-02T06:32:34.034Z,60.03
2017-08-02T06:33:43.766Z,59.47
2017-08-02T06:34:53.802Z,59.27
2017-08-02T06:36:03.536Z,59.1
2017-08-02T06:37:13.923Z,58.91
2017-08-02T06:38:24.401Z,59.59
2017-08-02T06:39:34.750Z,59.39
2017-08-02T06:40:44.553Z,59.03
2017-08-02T06:41:54.927Z,59.03
2017-08-02T06:43:04.988Z,58.37
2017-08-02T06:44:15.035Z,58.5
2017-08-02T06:45:25.395Z,57.97
2017-08-02T06:46:35.780Z,58.39
2017-08-02T06:47:46.142Z,58.29
2017-08-02T06:48:56.494Z,58.85
2017-08-02T06:50:06.834Z,58.95
2017-08-02T06:51:16.872Z,59.02
2017-08-02T06:52:27.215Z,59.61
2017-08-02T06:53:37.582Z,59.97
2017-08-02T06:54:47.947Z,60.07
2017-08-02T06:55:57.983Z,60.24
2017-08-02T06:57:08.341Z,60.73
2017-08-02T06:58:18.438Z,60.24
2017-08-02T06:59:28.817Z,59.94
2017-08-02T07:00:39.215Z,60.05
2017-08-02T07:01:49.277Z,60.11
2017-08-02T07:02:59.644Z,60.31
2017-08-02T07:04:10.007Z,60.7
2017-08-02T07:05:20.354Z,60.41
2017-08-02T07:06:30.711Z,60.38
2017-08-02T07:07:40.432Z,60.58
2017-08-02T07:08:50.485Z,60.47
2017-08-02T07:10:00.846Z,60.87
2017-08-02T07:11:11.211Z,60.87
2017-08-02T07:12:21.564Z,60.35
2017-08-02T07:13:31.606Z,60.15
2017-08-02T07:14:41.647Z,60.64
2017-08-02T07:15:52.077Z,60.64
2017-08-02T07:17:02.426Z,59.95
2017-08-02T07:18:12.471Z,59.56
2017-08-02T07:19:22.832Z,59.2
2017-08-02T07:20:33.213Z,59
2017-08-02T07:21:43.363Z,59.13
2017-08-02T07:22:53.399Z,58.94
2017-08-02T07:24:03.437Z,58.64
2017-08-02T07:25:13.519Z,58.34
2017-08-02T07:26:23.865Z,58.47
2017-08-02T07:27:33.891Z,57.62
2017-08-02T07:28:43.937Z,58.01
2017-08-02T07:29:53.984Z,58.83
2017-08-02T07:31:04.351Z,57.45
2017-08-02T07:32:14.423Z,57.77
2017-08-02T07:33:24.772Z,57.67
2017-08-02T07:34:34.838Z,57.77
2017-08-02T07:35:45.208Z,58.65
2017-08-02T07:36:55.266Z,58.72
2017-08-02T07:38:05.624Z,59.09
2017-08-02T07:39:15.714Z,59.55
2017-08-02T07:40:25.444Z,59.84
2017-08-02T07:41:35.480Z,59.92
2017-08-02T07:42:45.836Z,60.11
2017-08-02T07:43:56.193Z,60.58
2017-08-02T07:45:05.994Z,60.74
2017-08-02T07:46:16.064Z,60.15
2017-08-02T07:47:26.442Z,60.32
2017-08-02T07:48:36.812Z,60.52
2017-08-02T07:49:47.169Z,60.52
2017-08-02T07:50:57.565Z,60.42
2017-08-02T07:52:07.919Z,60.42
2017-08-02T07:53:17.687Z,60.52
2017-08-02T07:54:47.269Z,60.61
2017-08-02T07:55:57.670Z,60.42
2017-08-02T07:57:07.717Z,60.32
2017-08-02T07:58:17.134Z,60.42
2017-08-02T07:59:26.878Z,60.32
2017-08-02T08:00:36.607Z,60.32
2017-08-02T08:01:47.009Z,60.32
2017-08-02T08:02:56.731Z,60.32
2017-08-02T08:04:07.087Z,60.22
2017-08-02T08:05:17.150Z,60.22
2017-08-02T08:06:27.513Z,60.52
2017-08-02T08:07:37.863Z,60.71
2017-08-02T08:08:48.230Z,60.42
2017-08-02T08:09:58.604Z,60.81
2017-08-02T08:11:08.956Z,60.22
2017-08-02T08:12:19.016Z,60.22
2017-08-02T08:13:29.356Z,60.45
2017-08-02T08:14:39.708Z,60.25
2017-08-02T08:15:49.766Z,60.15
2017-08-02T08:17:00.140Z,59.95
2017-08-02T08:18:10.505Z,59.95
2017-08-02T08:19:20.869Z,59.95
2017-08-02T08:20:31.231Z,59.95
2017-08-02T08:21:41.284Z,59.89
2017-08-02T08:22:51.641Z,59.59
2017-08-02T08:24:01.723Z,59.13
2017-08-02T08:25:11.766Z,59.03
2017-08-02T08:26:22.135Z,59.16
2017-08-02T08:27:32.195Z,59.06
2017-08-02T08:28:42.549Z,58.6
2017-08-02T08:29:52.911Z,58.89
2017-08-02T08:31:03.349Z,59.09
2017-08-02T08:32:13.405Z,58.62
2017-08-02T08:33:23.163Z,58.14
2017-08-02T08:34:33.524Z,58.36
2017-08-02T08:35:43.886Z,58.48
2017-08-02T08:36:54.255Z,58.78
2017-08-02T08:38:04.613Z,58.69
2017-08-02T08:39:14.974Z,58.32
2017-08-02T08:40:25.333Z,58.42
2017-08-02T08:41:35.735Z,58.12
2017-08-02T08:42:45.464Z,57.86
2017-08-02T08:43:55.829Z,57.46
2017-08-02T08:45:06.192Z,57.98
2017-08-02T08:46:16.546Z,57.71
2017-08-02T08:47:26.978Z,57.54
2017-08-02T08:48:36.705Z,56.78
2017-08-02T08:49:46.756Z,56.81
2017-08-02T08:50:56.799Z,56.74
2017-08-02T08:52:06.844Z,57.06
2017-08-02T08:53:16.941Z,57.65
2017-08-02T08:54:27.290Z,57.35
2017-08-02T08:55:37.653Z,57.23
2017-08-02T08:56:48.023Z,58.22
2017-08-02T08:57:58.077Z,57.62
2017-08-02T08:59:08.495Z,57.89
2017-08-02T09:00:18.857Z,58.09
2017-08-02T09:01:29.240Z,58.22
2017-08-02T09:02:39.613Z,58.12
2017-08-02T09:03:49.657Z,58.02
2017-08-02T09:05:00.023Z,57.82
2017-08-02T09:06:10.408Z,57.53
2017-08-02T09:07:20.453Z,57.06
2017-08-02T09:08:30.819Z,57.09
2017-08-02T09:09:41.182Z,56.82
2017-08-02T09:10:51.343Z,56.72
2017-08-02T09:12:01.701Z,56.62
2017-08-02T09:13:11.772Z,56.45
2017-08-02T09:14:22.134Z,56.28
2017-08-02T09:15:32.491Z,56.57
2017-08-02T09:16:42.269Z,56.48
2017-08-02T09:17:52.648Z,56.11
2017-08-02T09:19:03.929Z,56.53
2017-08-02T09:20:16.382Z,56.53
2017-08-02T09:21:26.744Z,56.9
2017-08-02T09:22:51.770Z,57.07
2017-08-02T09:24:02.218Z,57.76
2017-08-02T09:25:12.574Z,57.07
2017-08-02T09:26:26.664Z,57.37
2017-08-02T09:27:37.034Z,57.44
2017-08-02T09:28:47.411Z,57.54
2017-08-02T09:29:57.478Z,58.01
2017-08-02T09:31:07.585Z,58.3
2017-08-02T09:32:17.709Z,57.61
2017-08-02T09:33:28.382Z,58.37
2017-08-02T09:34:38.798Z,58.18
2017-08-02T09:35:49.162Z,57.85
2017-08-02T09:36:59.528Z,58.94
2017-08-02T09:38:11.780Z,59.11
2017-08-02T09:43:24.675Z,60.35
2017-08-02T09:44:34.736Z,60.61
2017-08-02T09:45:45.093Z,60.61
2017-08-02T09:46:55.469Z,60.78
2017-08-02T09:48:05.850Z,60.58
2017-08-02T09:49:16.209Z,61.05
2017-08-02T09:50:25.922Z,60.95
2017-08-02T09:51:36.284Z,61.21
2017-08-02T09:52:46.656Z,61.29
2017-08-02T09:53:56.398Z,61.58
2017-08-02T09:55:06.753Z,61.35
2017-08-02T09:56:17.101Z,61.52
2017-08-02T09:57:29.599Z,61.61
2017-08-02T09:58:41.360Z,61.91
2017-08-02T09:59:53.384Z,61.03
2017-08-02T10:01:03.446Z,60.73
2017-08-02T10:02:13.491Z,60.44
2017-08-02T10:03:23.864Z,60.47
2017-08-02T10:04:33.927Z,59.97
2017-08-02T10:05:44.006Z,59.31
2017-08-02T10:06:54.349Z,58.92
2017-08-02T10:08:04.730Z,59.05
2017-08-02T10:09:15.097Z,58.48
2017-08-02T10:10:25.466Z,58.61
2017-08-02T10:11:35.871Z,57.86
2017-08-02T10:12:46.234Z,57.46
2017-08-02T10:13:56.598Z,58.08
2017-08-02T10:15:07.011Z,57.29
2017-08-02T10:16:17.373Z,57.51
2017-08-02T10:17:27.481Z,58.11
2017-08-02T10:18:37.897Z,57.74
2017-08-02T10:19:48.261Z,57.84
2017-08-02T10:20:58.629Z,57.64
2017-08-02T10:22:08.688Z,58.26
2017-08-02T10:23:18.778Z,57.47
2017-08-02T10:24:29.148Z,58.06
2017-08-02T10:25:39.512Z,58.14
2017-08-02T10:26:49.564Z,58.63
2017-08-02T10:27:59.312Z,58.43
2017-08-02T10:29:09.683Z,58.5
2017-08-02T10:30:20.069Z,59.09
2017-08-02T10:31:30.441Z,58.97
2017-08-02T10:32:40.842Z,58.3
2017-08-02T10:33:51.211Z,58.14
2017-08-02T10:35:01.628Z,57.74
2017-08-02T10:36:12.017Z,57.74
2017-08-02T10:37:22.077Z,57.84
2017-08-02T10:38:32.125Z,58.23
2017-08-02T10:39:43.045Z,58.04
2017-08-02T10:40:53.448Z,58.53
2017-08-02T10:42:03.494Z,58.73
2017-08-02T10:43:13.874Z,58.63
2017-08-02T10:44:24.242Z,59.32
2017-08-02T10:45:34.620Z,59.09
2017-08-02T10:46:44.992Z,59.19
2017-08-02T10:47:55.067Z,59.09
2017-08-02T10:49:05.431Z,58.8
2017-08-02T10:50:15.478Z,58.89
2017-08-02T10:51:25.537Z,59.29
2017-08-02T10:52:35.634Z,59.46
2017-08-02T10:53:45.692Z,59.19
2017-08-02T10:54:56.070Z,59.48
2017-08-02T10:56:06.445Z,59.26
2017-08-02T10:57:16.810Z,58.97
2017-08-02T10:58:27.159Z,59.36
2017-08-02T10:59:37.206Z,58.97
2017-08-02T11:00:47.674Z,58.77
2017-08-02T11:01:57.740Z,58.77
2017-08-02T11:03:07.807Z,59.06
2017-08-02T11:04:18.221Z,58.89
2017-08-02T11:05:28.341Z,59.29
2017-08-02T11:06:38.390Z,59.52
2017-08-02T11:07:48.457Z,59.32
2017-08-02T11:08:58.751Z,59.02
2017-08-02T11:10:09.184Z,59.12
2017-08-02T11:11:19.550Z,59.02
2017-08-02T11:12:29.928Z,59.12
2017-08-02T11:13:39.662Z,59.42
2017-08-02T11:14:50.025Z,59.12
2017-08-02T11:16:00.439Z,59.12
2017-08-02T11:17:10.827Z,59.42
2017-08-02T11:18:21.259Z,58.92
2017-08-02T11:19:31.639Z,59.12
2017-08-02T11:20:41.682Z,59.12
2017-08-02T11:21:51.857Z,59.32
2017-08-02T11:23:02.232Z,59.22
2017-08-02T11:24:12.292Z,59.02
2017-08-02T11:25:22.662Z,59.02
2017-08-02T11:26:32.728Z,59.55
2017-08-02T11:27:44.201Z,59.55
2017-08-02T11:28:54.576Z,59.55
2017-08-02T11:30:04.959Z,59.45
2017-08-02T11:31:15.307Z,58.95
2017-08-02T11:32:25.704Z,58.88
2017-08-02T11:33:36.223Z,58.59
2017-08-02T11:34:45.972Z,58.88
2017-08-02T11:35:58.921Z,58.78
2017-08-02T11:37:09.296Z,58.69
2017-08-02T11:38:21.288Z,58.51
2017-08-02T11:39:31.377Z,58.51
2017-08-02T11:40:44.603Z,58.61
2017-08-02T11:41:54.986Z,58.61
2017-08-02T11:43:05.344Z,58.51
2017-08-02T11:44:15.410Z,58.72
2017-08-02T11:45:25.832Z,58.81
2017-08-02T11:46:35.887Z,59.01
2017-08-02T11:47:46.295Z,59.5
2017-08-02T11:48:56.657Z,59.2
2017-08-02T11:50:07.020Z,59.5
2017-08-02T11:51:19.104Z,59.2
2017-08-02T11:52:29.467Z,59.5
2017-08-02T11:53:39.848Z,59.01
2017-08-02T11:54:49.898Z,59.11
2017-08-02T11:56:00.294Z,59.5
2017-08-02T11:57:11.515Z,59.41
2017-08-02T11:58:21.901Z,59.31
2017-08-02T11:59:32.257Z,59.41
2017-08-02T12:00:42.314Z,59.2
2017-08-02T12:01:52.692Z,59.2
2017-08-02T12:03:03.316Z,59.14
2017-08-02T12:04:13.690Z,59.6
2017-08-02T12:05:23.440Z,59.2
2017-08-02T12:06:33.816Z,59.2
2017-08-02T12:07:44.180Z,59.11
2017-08-02T12:08:54.593Z,59.11
2017-08-02T12:10:04.982Z,58.64
2017-08-02T12:11:15.367Z,58.54
2017-08-02T12:12:25.756Z,58.84
2017-08-02T12:13:36.122Z,58.94
2017-08-02T12:14:46.491Z,58.64
2017-08-02T12:15:56.870Z,59.04
2017-08-02T12:17:07.243Z,58.94
2017-08-02T12:18:17.305Z,58.74
2017-08-02T12:19:27.685Z,58.74
2017-08-02T12:20:37.797Z,58.67
2017-08-02T12:21:48.184Z,58.47
2017-08-02T12:22:58.552Z,58.57
2017-08-02T12:24:08.626Z,58.47
2017-08-02T12:25:18.682Z,58.57
2017-08-02T12:26:28.836Z,58.67
2017-08-02T12:27:39.215Z,58.57
2017-08-02T12:28:49.604Z,58.67
2017-08-02T12:29:59.329Z,58.6
2017-08-02T12:31:09.722Z,58.5
2017-08-02T12:32:20.161Z,59
2017-08-02T12:33:30.557Z,59
2017-08-02T12:34:40.622Z,58.7
2017-08-02T12:35:50.996Z,58.9
2017-08-02T12:37:01.410Z,58.73
2017-08-02T12:38:11.515Z,58.83
2017-08-02T12:39:21.256Z,58.73
2017-08-02T12:40:31.642Z,59.03
2017-08-02T12:41:42.015Z,58.83
2017-08-02T12:42:51.750Z,58.73
2017-08-02T12:44:01.911Z,58.92
2017-08-02T12:45:12.320Z,58.83
2017-08-02T12:46:22.700Z,58.53
2017-08-02T12:47:32.813Z,58.53
2017-08-02T12:48:42.882Z,58.63
2017-08-02T12:49:52.955Z,58.83
2017-08-02T12:51:03.308Z,58.73
2017-08-02T12:52:13.354Z,58.83
2017-08-02T12:53:23.755Z,59.22
2017-08-02T12:54:34.132Z,59.52
2017-08-02T12:55:44.925Z,59.39
2017-08-02T12:56:55.307Z,59.12
2017-08-02T12:58:05.367Z,59.59
2017-08-02T12:59:15.732Z,59.3
2017-08-02T13:00:25.820Z,59.49
2017-08-02T13:01:36.244Z,59.49
2017-08-02T13:02:47.163Z,59.3
2017-08-02T13:03:59.050Z,59.62
2017-08-02T13:05:09.415Z,59.52
2017-08-02T13:06:19.227Z,59.62
2017-08-02T13:07:29.324Z,59.12
2017-08-02T13:08:39.717Z,59.52
2017-08-02T13:09:50.097Z,59.42
2017-08-02T13:11:00.488Z,59.62
2017-08-02T13:12:10.912Z,59.52
2017-08-02T13:13:21.356Z,59.12
2017-08-02T13:14:30.800Z,59.62
2017-08-02T13:15:40.590Z,59.62
2017-08-02T13:16:50.972Z,59.42
2017-08-02T13:18:01.398Z,59.22
2017-08-02T13:19:11.837Z,59.55
2017-08-02T13:20:22.253Z,59.42
2017-08-02T13:21:32.663Z,59.42
2017-08-02T13:22:43.067Z,59.35
2017-08-02T13:23:53.492Z,59.55
2017-08-02T13:25:03.969Z,59.55
2017-08-02T13:26:14.336Z,59.32
2017-08-02T13:27:24.694Z,59.52
2017-08-02T13:28:35.106Z,59.45
2017-08-02T13:29:45.528Z,59.35
2017-08-02T13:30:55.953Z,59.15
2017-08-02T13:32:06.020Z,59.22
2017-08-02T13:33:15.785Z,59.42
2017-08-02T13:34:26.201Z,59.45
2017-08-02T13:35:50.446Z,59.12
2017-08-02T13:37:00.583Z,59.22
2017-08-02T13:39:50.274Z,59.32
2017-08-02T13:41:00.340Z,59.32
2017-08-02T13:42:10.732Z,59.42
2017-08-02T13:43:21.108Z,59.12
2017-08-02T13:44:31.553Z,59.22
2017-08-02T13:45:41.946Z,59.32
2017-08-02T13:46:52.350Z,59.32
2017-08-02T13:48:02.729Z,59.42
2017-08-02T13:49:13.113Z,59.32
2017-08-02T13:50:23.248Z,59.12
2017-08-02T13:51:33.635Z,59.42
2017-08-02T13:52:43.706Z,59.12
2017-08-02T13:53:54.096Z,59.12
2017-08-02T13:55:04.202Z,59.42
2017-08-02T13:56:14.343Z,59.12
2017-08-02T13:57:24.428Z,59.72
2017-08-02T13:58:34.827Z,59.81
2017-08-02T13:59:45.203Z,59.81
2017-08-02T14:00:55.276Z,59.72
2017-08-02T14:02:05.726Z,59.72
2017-08-02T14:03:15.788Z,59.72
2017-08-02T14:04:26.176Z,59.62
2017-08-02T14:05:36.240Z,59.22
2017-08-02T14:06:46.603Z,59.42
2017-08-02T14:07:57.050Z,59.52
2017-08-02T14:09:07.101Z,59.62
2017-08-02T14:10:17.203Z,59.52
2017-08-02T14:11:27.750Z,59.81
2017-08-02T14:12:38.209Z,59.62
2017-08-02T14:13:48.646Z,59.22
2017-08-02T14:14:59.025Z,59.42
2017-08-02T14:16:09.110Z,59.32
2017-08-02T14:17:19.196Z,59.52
2017-08-02T14:18:29.563Z,59.62
2017-08-02T14:19:39.980Z,59.52
2017-08-02T14:20:50.343Z,59.72
2017-08-02T14:22:00.399Z,59.55
2017-08-02T14:23:10.755Z,59.52
2017-08-02T14:24:20.824Z,59.52
2017-08-02T14:25:30.940Z,59.52
2017-08-02T14:26:41.321Z,59.42
2017-08-02T14:27:51.402Z,59.52
2017-08-02T14:29:01.766Z,59.42
2017-08-02T14:30:12.131Z,59.22
2017-08-02T14:31:22.258Z,59.12
2017-08-02T14:32:32.335Z,59.25
2017-08-02T14:33:42.407Z,59.25
2017-08-02T14:34:52.804Z,59.25
2017-08-02T14:36:03.191Z,59.15
2017-08-02T14:37:13.637Z,59.25
2017-08-02T14:38:23.684Z,59.55
2017-08-02T14:39:34.049Z,59.55
2017-08-02T14:40:44.121Z,59.45
2017-08-02T14:41:54.166Z,59.55
2017-08-02T14:43:04.599Z,59.45
2017-08-02T14:44:14.970Z,59.25
2017-08-02T14:45:25.353Z,59.81
2017-08-02T14:46:35.730Z,59.92
2017-08-02T14:47:46.105Z,59.62
2017-08-02T14:48:56.540Z,59.42
2017-08-02T14:50:09.086Z,59.62
2017-08-02T14:51:19.474Z,59.52
2017-08-02T14:52:29.858Z,60.11
2017-08-02T14:53:39.915Z,59.72
2017-08-02T14:54:50.342Z,59.92
2017-08-02T14:56:00.786Z,59.72
2017-08-02T14:57:12.862Z,59.52
2017-08-02T14:58:22.622Z,59.92
2017-08-02T14:59:32.694Z,59.81
2017-08-02T15:00:43.140Z,60.02
2017-08-02T15:01:53.194Z,60.21
2017-08-02T15:03:03.577Z,59.81
2017-08-02T15:04:13.647Z,59.81
2017-08-02T15:05:24.064Z,59.62
2017-08-02T15:06:34.482Z,59.92
2017-08-02T15:07:44.864Z,59.92
2017-08-02T15:08:54.930Z,59.62
2017-08-02T15:10:05.312Z,59.92
2017-08-02T15:11:15.690Z,60.61
2017-08-02T15:12:26.114Z,60.38
2017-08-02T15:13:36.492Z,60.38
2017-08-02T15:14:46.245Z,60.58
2017-08-02T15:15:56.314Z,59.79
2017-08-02T15:17:06.386Z,59.72
2017-08-02T15:18:16.502Z,59.92
2017-08-02T15:19:26.567Z,59.62
2017-08-02T15:20:36.996Z,59.92
2017-08-02T15:21:47.382Z,59.81
2017-08-02T15:22:57.784Z,59.81
2017-08-02T15:24:07.601Z,59.55
2017-08-02T15:25:18.444Z,59.72
2017-08-02T15:26:28.820Z,59.81
2017-08-02T15:27:38.936Z,60.02
2017-08-02T15:31:16.230Z,60.88
2017-08-02T15:32:26.601Z,60.94
2017-08-02T15:33:36.976Z,60.85
2017-08-02T15:34:47.374Z,60.16
2017-08-02T15:35:57.440Z,60.38
2017-08-02T15:37:07.867Z,60.38
2017-08-02T15:38:18.253Z,60.48
2017-08-02T15:39:28.688Z,60.38
2017-08-02T15:40:39.063Z,60.28
2017-08-02T15:41:49.467Z,59.99
2017-08-02T15:42:59.947Z,59.69
2017-08-02T15:44:10.310Z,60.08
2017-08-02T15:45:20.362Z,59.99
2017-08-02T15:46:30.405Z,60.48
2017-08-02T15:47:40.815Z,60.28